TSC40 CYUL-EIKN
Flight info
| Callsign | TSC40 |
|---|---|
| Flight time | N/A |
| Altitude | 37000 |
| Route | MAIRE Q812 ANATI Q850 KISUV N907B TABRU DCT 52N058W/M081F370 54N050W 55N041W 55N032W 55N022W/N0466F370 DCT KOKIB DCT DEVOL DCT QIZOH QIZOH1A |
| Aircraft | A332/H-SDE1E2E3FGHIJ5LM1OP2RVWXYZ/LB1D1 |
Departure
| Time | 2026-05-05 06:44 |
|---|---|
| Airport | Montreal / Pierre Elliott Trudeau International Airport (CYUL) |
Arrival
| Time | N/A |
|---|---|
| Airport | Ireland West Airport Knock (EIKN) |
| Time | Latitude | Longitude | Altitude | Speed | Heading |
|---|---|---|---|---|---|
| 2026-05-05 06:34 | 45.46737 | -73.73482 | 113 ft | 0 kts | 133° |
| 2026-05-05 06:34 | 45.46752 | -73.73502 | 113 ft | 4 kts | 154° |
| 2026-05-05 06:35 | 45.46776 | -73.73507 | 110 ft | 4 kts | 202° |
| 2026-05-05 06:35 | 45.46790 | -73.73495 | 114 ft | 1 kts | 223° |
| 2026-05-05 06:38 | 45.46784 | -73.73503 | 111 ft | 5 kts | 223° |
| 2026-05-05 06:38 | 45.46735 | -73.73553 | 110 ft | 11 kts | 187° |
| 2026-05-05 06:38 | 45.46637 | -73.73551 | 112 ft | 15 kts | 180° |
| 2026-05-05 06:38 | 45.46578 | -73.73493 | 113 ft | 7 kts | 83° |
| 2026-05-05 06:39 | 45.46603 | -73.73455 | 111 ft | 7 kts | 43° |
| 2026-05-05 06:39 | 45.46651 | -73.73398 | 111 ft | 12 kts | 38° |
| 2026-05-05 06:39 | 45.46726 | -73.73313 | 111 ft | 16 kts | 40° |
| 2026-05-05 06:39 | 45.46816 | -73.73192 | 113 ft | 20 kts | 44° |
| 2026-05-05 06:40 | 45.46923 | -73.73042 | 114 ft | 23 kts | 44° |
| 2026-05-05 06:40 | 45.47043 | -73.72873 | 117 ft | 25 kts | 45° |
| 2026-05-05 06:40 | 45.47167 | -73.72692 | 118 ft | 25 kts | 41° |
| 2026-05-05 06:40 | 45.47304 | -73.72531 | 118 ft | 26 kts | 41° |
| 2026-05-05 06:41 | 45.47437 | -73.72350 | 119 ft | 27 kts | 44° |
| 2026-05-05 06:41 | 45.47576 | -73.72166 | 119 ft | 28 kts | 41° |
| 2026-05-05 06:41 | 45.47721 | -73.71982 | 121 ft | 28 kts | 43° |
| 2026-05-05 06:41 | 45.47807 | -73.71842 | 126 ft | 10 kts | 91° |
| 2026-05-05 06:42 | 45.47781 | -73.71750 | 122 ft | 10 kts | 121° |
| 2026-05-05 06:42 | 45.47743 | -73.71678 | 125 ft | 9 kts | 132° |
| 2026-05-05 06:42 | 45.47705 | -73.71627 | 128 ft | 6 kts | 150° |
| 2026-05-05 06:42 | 45.47673 | -73.71639 | 128 ft | 4 kts | 219° |
| 2026-05-05 06:43 | 45.47649 | -73.71671 | 128 ft | 5 kts | 222° |
| 2026-05-05 06:43 | 45.47622 | -73.71705 | 125 ft | 5 kts | 223° |
| 2026-05-05 06:43 | 45.47616 | -73.71714 | 123 ft | 5 kts | 223° |
| 2026-05-05 06:43 | 45.47475 | -73.71898 | 121 ft | 57 kts | 222° |
| 2026-05-05 06:44 | 45.47031 | -73.72486 | 119 ft | 115 kts | 223° |
| 2026-05-05 06:44 | 45.46306 | -73.73420 | 222 ft | 158 kts | 226° |
| 2026-05-05 06:44 | 45.45499 | -73.74567 | 731 ft | 173 kts | 223° |
| 2026-05-05 06:44 | 45.44579 | -73.75795 | 1364 ft | 186 kts | 220° |
| 2026-05-05 06:45 | 45.43586 | -73.77107 | 1974 ft | 203 kts | 223° |
| 2026-05-05 06:45 | 45.42501 | -73.78513 | 2459 ft | 219 kts | 212° |
| 2026-05-05 06:45 | 45.40996 | -73.79106 | 2717 ft | 237 kts | 177° |
| 2026-05-05 06:45 | 45.39452 | -73.78178 | 3239 ft | 253 kts | 142° |
| 2026-05-05 06:46 | 45.38508 | -73.76019 | 3827 ft | 269 kts | 109° |
| 2026-05-05 06:46 | 45.38519 | -73.73289 | 4335 ft | 288 kts | 76° |
| 2026-05-05 06:46 | 45.39470 | -73.70735 | 4888 ft | 298 kts | 53° |
| 2026-05-05 06:46 | 45.40855 | -73.68508 | 5550 ft | 302 kts | 45° |
| 2026-05-05 06:47 | 45.42348 | -73.66377 | 6138 ft | 307 kts | 44° |
| 2026-05-05 06:47 | 45.43855 | -73.64146 | 6680 ft | 316 kts | 46° |
| 2026-05-05 06:47 | 45.45339 | -73.61759 | 7409 ft | 318 kts | 49° |
| 2026-05-05 06:47 | 45.46727 | -73.59340 | 8105 ft | 321 kts | 51° |
| 2026-05-05 06:48 | 45.48096 | -73.56807 | 8783 ft | 325 kts | 53° |
| 2026-05-05 06:48 | 45.49446 | -73.54203 | 9442 ft | 328 kts | 53° |
| 2026-05-05 06:48 | 45.50787 | -73.51565 | 10121 ft | 330 kts | 54° |
| 2026-05-05 06:48 | 45.52158 | -73.48852 | 10490 ft | 345 kts | 53° |
| 2026-05-05 06:49 | 45.53594 | -73.46015 | 10761 ft | 361 kts | 53° |
| 2026-05-05 06:49 | 45.55097 | -73.43049 | 11023 ft | 377 kts | 53° |
| 2026-05-05 06:49 | 45.56663 | -73.39970 | 11349 ft | 389 kts | 53° |
| 2026-05-05 06:49 | 45.58269 | -73.36821 | 11885 ft | 395 kts | 53° |
| 2026-05-05 06:50 | 45.59364 | -73.34675 | 12295 ft | 396 kts | 53° |
| 2026-05-05 06:50 | 45.60993 | -73.31488 | 12915 ft | 399 kts | 53° |
| 2026-05-05 06:50 | 45.62612 | -73.28321 | 13496 ft | 401 kts | 53° |
| 2026-05-05 06:50 | 45.64286 | -73.25042 | 14069 ft | 405 kts | 53° |
| 2026-05-05 06:51 | 45.65926 | -73.21827 | 14645 ft | 407 kts | 53° |
| 2026-05-05 06:51 | 45.67599 | -73.18540 | 15186 ft | 410 kts | 52° |
| 2026-05-05 06:51 | 45.69280 | -73.15230 | 15748 ft | 412 kts | 52° |
| 2026-05-05 06:51 | 45.70962 | -73.11890 | 16274 ft | 415 kts | 53° |
| 2026-05-05 06:52 | 45.72619 | -73.08487 | 16772 ft | 419 kts | 54° |
| 2026-05-05 06:52 | 45.74263 | -73.05026 | 17272 ft | 422 kts | 54° |
| 2026-05-05 06:52 | 45.75906 | -73.01534 | 17804 ft | 424 kts | 54° |
| 2026-05-05 06:52 | 45.77553 | -72.98016 | 18287 ft | 427 kts | 54° |
| 2026-05-05 06:53 | 45.79211 | -72.94471 | 18769 ft | 430 kts | 54° |
| 2026-05-05 06:53 | 45.80882 | -72.90898 | 19219 ft | 432 kts | 54° |
| 2026-05-05 06:53 | 45.82563 | -72.87306 | 19612 ft | 436 kts | 54° |
| 2026-05-05 06:53 | 45.84261 | -72.83686 | 19989 ft | 439 kts | 54° |
| 2026-05-05 06:54 | 45.85969 | -72.80035 | 20368 ft | 443 kts | 53° |
| 2026-05-05 06:54 | 45.87692 | -72.76356 | 20779 ft | 445 kts | 53° |
| 2026-05-05 06:54 | 45.89425 | -72.72659 | 21211 ft | 447 kts | 53° |
| 2026-05-05 06:54 | 45.91164 | -72.68939 | 21622 ft | 450 kts | 53° |
| 2026-05-05 06:55 | 45.92913 | -72.65186 | 21965 ft | 453 kts | 53° |
| 2026-05-05 06:55 | 45.94673 | -72.61406 | 22342 ft | 456 kts | 53° |
| 2026-05-05 06:55 | 45.96442 | -72.57612 | 22699 ft | 458 kts | 52° |
| 2026-05-05 06:55 | 45.98344 | -72.53944 | 23059 ft | 459 kts | 49° |
| 2026-05-05 06:56 | 46.00308 | -72.50310 | 23414 ft | 461 kts | 48° |
| 2026-05-05 06:56 | 46.02308 | -72.46683 | 23736 ft | 464 kts | 47° |
| 2026-05-05 06:56 | 46.04334 | -72.43046 | 24046 ft | 467 kts | 47° |
| 2026-05-05 06:56 | 46.06371 | -72.39398 | 24392 ft | 469 kts | 47° |
| 2026-05-05 06:57 | 46.08422 | -72.35726 | 24705 ft | 472 kts | 47° |
| 2026-05-05 06:57 | 46.10479 | -72.32035 | 25057 ft | 473 kts | 47° |
| 2026-05-05 06:57 | 46.12540 | -72.28325 | 25359 ft | 475 kts | 47° |
| 2026-05-05 06:57 | 46.14611 | -72.24589 | 25677 ft | 478 kts | 47° |
| 2026-05-05 06:58 | 46.16685 | -72.20839 | 26005 ft | 480 kts | 47° |
| 2026-05-05 06:58 | 46.18770 | -72.17060 | 26340 ft | 482 kts | 47° |
| 2026-05-05 06:58 | 46.20860 | -72.13267 | 26654 ft | 484 kts | 47° |
| 2026-05-05 06:58 | 46.22961 | -72.09453 | 26944 ft | 486 kts | 47° |
| 2026-05-05 06:59 | 46.25042 | -72.05670 | 27233 ft | 489 kts | 47° |
| 2026-05-05 06:59 | 46.27158 | -72.01816 | 27516 ft | 491 kts | 47° |
| 2026-05-05 06:59 | 46.29280 | -71.97944 | 27815 ft | 492 kts | 47° |
| 2026-05-05 06:59 | 46.31415 | -71.94050 | 28074 ft | 495 kts | 47° |
| 2026-05-05 07:00 | 46.33555 | -71.90138 | 28386 ft | 496 kts | 47° |
| 2026-05-05 07:00 | 46.35701 | -71.86211 | 28634 ft | 499 kts | 47° |
| 2026-05-05 07:00 | 46.37869 | -71.82277 | 28894 ft | 499 kts | 44° |
| 2026-05-05 07:00 | 46.40271 | -71.78667 | 29142 ft | 496 kts | 38° |
| 2026-05-05 07:01 | 46.42781 | -71.75251 | 29448 ft | 495 kts | 37° |
| 2026-05-05 07:01 | 46.45331 | -71.71893 | 29738 ft | 496 kts | 36° |
| 2026-05-05 07:01 | 46.47911 | -71.68560 | 29978 ft | 498 kts | 35° |
| 2026-05-05 07:01 | 46.50513 | -71.65226 | 30220 ft | 499 kts | 35° |
| 2026-05-05 07:02 | 46.53121 | -71.61884 | 30514 ft | 500 kts | 35° |
| 2026-05-05 07:02 | 46.55717 | -71.58543 | 30912 ft | 498 kts | 35° |
| 2026-05-05 07:02 | 46.58303 | -71.55203 | 31263 ft | 497 kts | 35° |
| 2026-05-05 07:02 | 46.60881 | -71.51862 | 31607 ft | 496 kts | 35° |
| 2026-05-05 07:03 | 46.63446 | -71.48525 | 31991 ft | 494 kts | 35° |
| 2026-05-05 07:03 | 46.66004 | -71.45192 | 32312 ft | 493 kts | 35° |
| 2026-05-05 07:03 | 46.68520 | -71.41906 | 32656 ft | 491 kts | 35° |
| 2026-05-05 07:03 | 46.71060 | -71.38588 | 32941 ft | 491 kts | 35° |
| 2026-05-05 07:04 | 46.73598 | -71.35270 | 33246 ft | 489 kts | 35° |
| 2026-05-05 07:04 | 46.76127 | -71.31961 | 33565 ft | 488 kts | 35° |
| 2026-05-05 07:04 | 46.78606 | -71.28568 | 33837 ft | 492 kts | 40° |
| 2026-05-05 07:04 | 46.80924 | -71.24879 | 34099 ft | 494 kts | 41° |
| 2026-05-05 07:05 | 46.83199 | -71.21130 | 34400 ft | 493 kts | 43° |
| 2026-05-05 07:05 | 46.85444 | -71.17349 | 34621 ft | 493 kts | 43° |
| 2026-05-05 07:05 | 46.87678 | -71.13547 | 34823 ft | 493 kts | 44° |
| 2026-05-05 07:05 | 46.89910 | -71.09730 | 35022 ft | 494 kts | 44° |
| 2026-05-05 07:06 | 46.92138 | -71.05911 | 35285 ft | 492 kts | 44° |
| 2026-05-05 07:06 | 46.94362 | -71.02097 | 35476 ft | 493 kts | 44° |
| 2026-05-05 07:06 | 46.96585 | -70.98293 | 35657 ft | 493 kts | 44° |
| 2026-05-05 07:06 | 46.98815 | -70.94475 | 35833 ft | 493 kts | 44° |
| 2026-05-05 07:07 | 47.01040 | -70.90662 | 36058 ft | 491 kts | 44° |
| 2026-05-05 07:07 | 47.03262 | -70.86832 | 36182 ft | 495 kts | 45° |
| 2026-05-05 07:07 | 47.05490 | -70.82986 | 36392 ft | 494 kts | 45° |
| 2026-05-05 07:07 | 47.07715 | -70.79158 | 36604 ft | 493 kts | 45° |
| 2026-05-05 07:08 | 47.09937 | -70.75331 | 36713 ft | 492 kts | 45° |
| 2026-05-05 07:08 | 47.14327 | -70.67734 | 36718 ft | 485 kts | 45° |
| 2026-05-05 07:09 | 47.18672 | -70.60182 | 36720 ft | 483 kts | 45° |
| 2026-05-05 07:09 | 47.23002 | -70.52629 | 36720 ft | 483 kts | 45° |
| 2026-05-05 07:10 | 47.27322 | -70.45059 | 36721 ft | 482 kts | 46° |
| 2026-05-05 07:10 | 47.31635 | -70.37486 | 36718 ft | 482 kts | 46° |
| 2026-05-05 07:11 | 47.35948 | -70.29909 | 36712 ft | 482 kts | 46° |
| 2026-05-05 07:11 | 47.40275 | -70.22273 | 36712 ft | 482 kts | 46° |
| 2026-05-05 07:12 | 47.44544 | -70.14711 | 36711 ft | 482 kts | 46° |
| 2026-05-05 07:12 | 47.48814 | -70.07098 | 36711 ft | 480 kts | 46° |
| 2026-05-05 07:13 | 47.53081 | -69.99480 | 36718 ft | 481 kts | 46° |
| 2026-05-05 07:13 | 47.57333 | -69.91856 | 36720 ft | 480 kts | 46° |
| 2026-05-05 07:14 | 47.61573 | -69.84214 | 36719 ft | 480 kts | 46° |
| 2026-05-05 07:14 | 47.65808 | -69.76569 | 36720 ft | 479 kts | 46° |
| 2026-05-05 07:15 | 47.70033 | -69.68926 | 36720 ft | 479 kts | 46° |
| 2026-05-05 07:15 | 47.74255 | -69.61265 | 36719 ft | 479 kts | 46° |
| 2026-05-05 07:16 | 47.78621 | -69.53831 | 36721 ft | 477 kts | 43° |
| 2026-05-05 07:16 | 47.83193 | -69.46682 | 36729 ft | 477 kts | 42° |
| 2026-05-05 07:17 | 47.87785 | -69.39552 | 36729 ft | 478 kts | 42° |
| 2026-05-05 07:17 | 47.92349 | -69.32372 | 36731 ft | 476 kts | 42° |
| 2026-05-05 07:18 | 47.96884 | -69.25174 | 36721 ft | 476 kts | 43° |
| 2026-05-05 07:18 | 48.01417 | -69.17949 | 36721 ft | 477 kts | 43° |
| 2026-05-05 07:19 | 48.05945 | -69.10710 | 36720 ft | 476 kts | 43° |